This is the latest recevied weather packets stored in our database for station/object GW7204. If no packets are shown the sender has not sent any weather packets the latest 10 day(s).
| Time | Temp. | Humidity | Pressure | Rain* | Wind** | Luminosity | Snow |
|---|---|---|---|---|---|---|---|
| 1777980095 | 15.56° C | 73% | 1008.8 hPa | 0 mm | - | - | - |
| 1777972872 | 15.56° C | 75% | 1008.1 hPa | 0 mm | - | - | - |
| 1777972173 | 15.56° C | 74% | 1008.1 hPa | 0 mm | - | - | - |
| 1777971810 | 15° C | 76% | 1008.1 hPa | 0 mm | - | - | - |
| 1777970370 | 15° C | 77% | 1008.1 hPa | 0 mm | - | - | - |
| 1777967849 | 15.56° C | 75% | 1007.4 hPa | 0 mm | - | - | - |
| 1777967471 | 15.56° C | 76% | 1007.4 hPa | 0 mm | - | - | - |
| 1777966779 | 15.56° C | 75% | 1007.4 hPa | 0 mm | - | - | - |
| 1777959570 | 17.22° C | 68% | 1007.7 hPa | 0 mm | - | - | - |
| 1777959189 | 17.22° C | 68% | 1007.7 hPa | 0 mm | - | - | - |
| 1777958137 | 16.67° C | 71% | 1007.7 hPa | 0 mm | - | - | - |
| 1777949863 | 14.44° C | 88% | 1007.4 hPa | 0 mm | - | - | - |
| 1777946966 | 15° C | 86% | 1007.1 hPa | 0 mm | - | - | - |
| 1777946597 | 15.56° C | 85% | 1007.1 hPa | 0 mm | - | - | - |
| 1777945158 | 16.11° C | 80% | 1007.1 hPa | 0 mm | - | - | - |
| 1777943736 | 17.78° C | 73% | 1006.7 hPa | 0 mm | - | - | - |
| 1777943011 | 18.33° C | 71% | 1006.7 hPa | 0 mm | - | - | - |
| 1777940113 | 21.11° C | 60% | 1006.7 hPa | 0 mm | - | - | - |
| 1777939035 | 21.67° C | 57% | 1006.7 hPa | 0 mm | - | - | - |
| 1777937621 | 23.33° C | 52% | 1007.1 hPa | 0 mm | - | - | - |
| 1777935107 | 23.89° C | 52% | 1007.1 hPa | 0 mm | - | - | - |
| 1777934376 | 24.44° C | 47% | 1007.4 hPa | 0 mm | - | - | - |
| 1777933996 | 23.89° C | 50% | 1007.4 hPa | 0 mm | - | - | - |
| 1777932196 | 22.78° C | 52% | 1007.7 hPa | 0 mm | - | - | - |
| 1777929328 | 22.22° C | 50% | 1008.1 hPa | 0 mm | - | - | - |
* Rain since midnight (hover to see other rain measurements)
** Current wind speed in m/s (hover to see current wind gust speed)